METAR Data
IDs: Format: Raw Decoded Include TAF

Data at: 0226 UTC 03 Jul 2022

ESOW 030220Z AUTO 19005KT 9999 NCD 15/12 Q1019